Jacksonport, AR

11:47 AM CDT on September 02, 2014 (GMT -0500)
Jonesboro Municipal | Change Station
CLOSE
Current Station
Airport
Location: Jonesboro,
Elevation: 262 ft
Nearby Weather Stations
Active Advisory: Flood Warning

Elev 262 ft 35.83 °N, 90.65 °W | Updated 54 minutes ago

Partly Cloudy
Partly Cloudy
78 °F
Feels Like 78 °F
N
6
Wind Variable Wind from South

Today
High -- | Low -- °F
--% Chance of Precip.
Yesterday
High -- | Low -- °F
Precip. -- in
6:37 AM 7:30 PM
First Quarter, 53% visible
Pressure 30.00 in
Visibility 10.0 miles
Clouds Few 12000 ft
Dew Point 70 °F
Humidity 76%
Rainfall 0.00 in
Snow Depth Not available.
UV 7 out of 12
Pollen 10.10 out of 12
Air Quality Not available.
Flu Activity Not available.
METAR KJBR 021553Z AUTO 19005KT 10SM FEW120 26/21 A3001 RMK AO2 SLP159 T02560211

More Conditions Fewer Conditions

Pressure 30.00 in
Visibility 10.0 miles
Clouds Few 12000 ft
Dew Point 70 °F
Humidity 76%
Rainfall 0.00 in
Snow Depth Not available.
UV 7 out of 12
Pollen 10.10 out of 12
Air Quality Not available.
Flu Activity Not available.
METAR KJBR 021553Z AUTO 19005KT 10SM FEW120 26/21 A3001 RMK AO2 SLP159 T02560211

More Conditions Fewer Conditions

10-Day Weather Forecast

Almanac

Astronomy

Sep. 02, 2014 Rise Set
Actual Time 6:37 AM CDT 7:30 PM CDT
Civil Twilight 6:11 AM CDT 7:56 PM CDT
Nautical Twilight 5:40 AM CDT 8:27 PM CDT
Astronomical Twilight 5:09 AM CDT 8:58 PM CDT
Moon 2:07 PM CDT No Moon Set
Length of Visible Light 13h 44m
Length of Day
12h 52m
Tomorrow will be 2m 10s shorter.
First Quarter, 53% of the Moon is Illuminated
Today
First Quarter
Sep 8
Full
Sep 15
Last Quarter
Sep 24
New
Oct 1
First Quarter

Today's Extremes

State Highs State Lows

Community

WunderPhotos

Upload Photos

1,749,716 photos uploaded!

WunderBlogs® & News

Nearby

Snow Depth

Station Depth Elevation
No new snow has been reported.

Earthquake Activity

City Distance Mag. Time & Date
Tiptonville, Tennessee 106 miles 2.9 11:19 PM CDT
2014-08-31
Minimum magnitude displayed is 2.5.

Coastal Water Temperatures

Place Temperature
No Stations Reporting

Nearby Weather Stations